createdAt,value
2017-06-24T00:00:18.469Z,23.80
2017-06-24T00:02:46.029Z,24.00
2017-06-24T00:05:13.579Z,23.80
2017-06-24T00:07:41.132Z,23.70
2017-06-24T00:10:08.743Z,22.80
2017-06-24T00:12:36.313Z,23.00
2017-06-24T00:15:03.863Z,22.70
2017-06-24T00:17:31.406Z,23.20
2017-06-24T00:19:58.929Z,23.20
2017-06-24T00:22:26.541Z,23.10
2017-06-24T00:24:54.072Z,23.30
2017-06-24T00:27:21.614Z,23.20
2017-06-24T00:29:49.170Z,23.10
2017-06-24T00:32:16.702Z,23.20
2017-06-24T00:34:44.265Z,22.80
2017-06-24T00:37:11.822Z,22.90
2017-06-24T00:39:39.354Z,22.80
2017-06-24T00:42:06.900Z,22.70
2017-06-24T00:44:34.405Z,22.60
2017-06-24T00:47:01.941Z,22.60
2017-06-24T00:49:29.462Z,22.10
2017-06-24T00:51:57.005Z,22.40
2017-06-24T00:54:24.581Z,22.00
2017-06-24T00:56:52.105Z,22.20
2017-06-24T00:59:20.401Z,22.50
2017-06-24T01:01:47.953Z,22.50
2017-06-24T01:04:15.505Z,22.00
2017-06-24T01:06:43.042Z,21.90
2017-06-24T01:09:10.558Z,21.80
2017-06-24T01:11:38.111Z,22.00
2017-06-24T01:14:05.626Z,21.80
2017-06-24T01:16:33.171Z,21.40
2017-06-24T01:19:00.694Z,21.30
2017-06-24T01:21:28.206Z,21.20
2017-06-24T01:23:55.753Z,21.10
2017-06-24T01:26:23.264Z,21.00
2017-06-24T01:28:50.837Z,21.20
2017-06-24T01:31:18.346Z,21.10
2017-06-24T01:33:45.915Z,21.40
2017-06-24T01:36:13.432Z,21.40
2017-06-24T01:38:40.949Z,21.50
2017-06-24T01:41:09.259Z,20.70
2017-06-24T01:43:36.822Z,20.60
2017-06-24T01:46:04.331Z,20.10
2017-06-24T01:48:31.953Z,20.40
2017-06-24T01:50:59.452Z,20.70
2017-06-24T01:53:27.007Z,20.90
2017-06-24T01:55:54.534Z,21.00
2017-06-24T01:58:22.064Z,20.80
2017-06-24T02:00:49.583Z,21.00
2017-06-24T02:03:17.122Z,21.00
2017-06-24T02:05:44.709Z,20.90
2017-06-24T02:08:12.270Z,20.90
2017-06-24T02:10:39.806Z,21.00
2017-06-24T02:13:07.335Z,20.60
2017-06-24T02:15:34.874Z,21.00
2017-06-24T02:18:02.395Z,21.10
2017-06-24T02:20:29.980Z,20.90
2017-06-24T02:22:58.319Z,21.00
2017-06-24T02:25:25.844Z,21.00
2017-06-24T02:27:53.422Z,20.60
2017-06-24T02:30:20.955Z,20.80
2017-06-24T02:32:48.539Z,20.80
2017-06-24T02:35:16.059Z,20.70
2017-06-24T02:37:44.345Z,20.60
2017-06-24T02:40:11.874Z,20.60
2017-06-24T02:42:39.425Z,20.50
2017-06-24T02:45:06.967Z,20.70
2017-06-24T02:47:34.530Z,20.40
2017-06-24T02:50:02.045Z,20.60
2017-06-24T02:52:30.335Z,20.60
2017-06-24T02:54:57.899Z,20.60
2017-06-24T02:57:25.447Z,20.50
2017-06-24T02:59:52.969Z,20.40
2017-06-24T03:02:20.523Z,20.20
2017-06-24T03:04:48.077Z,20.30
2017-06-24T03:07:15.634Z,20.50
2017-06-24T03:09:43.162Z,20.20
2017-06-24T03:12:22.597Z,20.10
2017-06-24T03:14:50.126Z,20.10
2017-06-24T03:17:18.404Z,20.40
2017-06-24T03:19:46.720Z,20.20
2017-06-24T03:22:14.234Z,20.10
2017-06-24T03:24:42.554Z,20.10
2017-06-24T03:27:10.058Z,20.10
2017-06-24T03:29:37.599Z,19.90
2017-06-24T03:32:05.147Z,20.00
2017-06-24T03:34:32.735Z,20.00
2017-06-24T03:37:00.261Z,19.90
2017-06-24T03:39:27.786Z,19.90
2017-06-24T03:41:56.066Z,20.00
2017-06-24T03:44:23.623Z,20.00
2017-06-24T03:46:51.906Z,20.20
2017-06-24T03:49:19.474Z,20.10
2017-06-24T03:51:47.026Z,19.90
2017-06-24T03:54:14.569Z,20.00
2017-06-24T03:56:42.863Z,19.80
2017-06-24T03:59:11.187Z,20.00
2017-06-24T04:01:38.714Z,20.00
2017-06-24T04:04:06.265Z,20.40
2017-06-24T04:06:33.798Z,20.30
2017-06-24T04:09:01.334Z,20.00
2017-06-24T04:11:29.030Z,20.20
2017-06-24T04:13:56.585Z,20.30
2017-06-24T04:16:24.082Z,20.00
2017-06-24T04:18:51.630Z,20.10
2017-06-24T04:21:19.137Z,20.50
2017-06-24T04:23:46.688Z,20.30
2017-06-24T04:26:14.228Z,20.30
2017-06-24T04:28:41.788Z,20.20
2017-06-24T04:31:09.310Z,20.20
2017-06-24T04:33:37.653Z,20.10
2017-06-24T04:36:05.186Z,20.10
2017-06-24T04:38:32.721Z,20.60
2017-06-24T04:41:00.248Z,20.60
2017-06-24T04:43:28.546Z,20.30
2017-06-24T04:45:56.116Z,20.30
2017-06-24T04:48:24.381Z,20.20
2017-06-24T04:50:51.942Z,20.20
2017-06-24T04:53:19.509Z,20.30
2017-06-24T04:55:47.831Z,20.30
2017-06-24T04:58:15.384Z,20.30
2017-06-24T05:00:42.914Z,20.30
2017-06-24T05:03:10.446Z,20.60
2017-06-24T05:05:37.984Z,20.70
2017-06-24T05:08:05.520Z,20.90
2017-06-24T05:10:33.068Z,20.70
2017-06-24T05:13:00.589Z,20.80
2017-06-24T05:15:28.866Z,21.40
2017-06-24T05:17:56.415Z,21.40
2017-06-24T05:20:23.947Z,20.90
2017-06-24T05:22:51.480Z,20.70
2017-06-24T05:25:19.017Z,20.60
2017-06-24T05:27:46.545Z,20.90
2017-06-24T05:30:14.057Z,20.80
2017-06-24T05:32:41.593Z,20.70
2017-06-24T05:35:09.871Z,20.90
2017-06-24T05:37:38.499Z,20.80
2017-06-24T05:40:06.185Z,20.90
2017-06-24T05:42:33.715Z,20.80
2017-06-24T05:45:01.269Z,20.60
2017-06-24T05:47:28.803Z,20.80
2017-06-24T05:49:56.370Z,20.70
2017-06-24T05:52:23.884Z,20.80
2017-06-24T05:54:51.422Z,20.60
2017-06-24T05:57:18.974Z,21.00
2017-06-24T05:59:46.550Z,21.20
2017-06-24T06:02:14.078Z,20.60
2017-06-24T06:04:41.602Z,21.30
2017-06-24T06:07:09.183Z,21.40
2017-06-24T06:09:36.722Z,21.60
2017-06-24T06:12:04.249Z,21.40
2017-06-24T06:14:31.778Z,21.70
2017-06-24T06:16:59.290Z,20.80
2017-06-24T06:19:26.876Z,21.40
2017-06-24T06:21:54.493Z,21.70
2017-06-24T06:24:21.997Z,21.30
2017-06-24T06:26:49.562Z,21.50
2017-06-24T06:29:17.083Z,21.60
2017-06-24T06:31:44.604Z,21.60
2017-06-24T06:34:12.164Z,21.80
2017-06-24T06:36:39.690Z,21.60
2017-06-24T06:39:08.083Z,22.00
2017-06-24T06:41:35.613Z,22.00
2017-06-24T06:44:03.164Z,21.80
2017-06-24T06:46:30.691Z,21.50
2017-06-24T06:48:58.255Z,22.00
2017-06-24T06:51:25.812Z,22.30
2017-06-24T06:53:53.318Z,22.10
2017-06-24T06:56:21.627Z,22.00
2017-06-24T06:58:49.163Z,22.00
2017-06-24T07:01:17.488Z,22.20
2017-06-24T07:03:45.001Z,22.20
2017-06-24T07:06:13.373Z,21.80
2017-06-24T07:08:41.665Z,22.30
2017-06-24T07:11:09.970Z,22.60
2017-06-24T07:13:37.493Z,22.60
2017-06-24T07:16:05.822Z,22.30
2017-06-24T07:18:33.376Z,22.20
2017-06-24T07:21:00.926Z,22.10
2017-06-24T07:23:28.501Z,22.50
2017-06-24T07:25:56.045Z,22.50
2017-06-24T07:28:23.585Z,22.80
2017-06-24T07:30:51.129Z,22.50
2017-06-24T07:33:18.714Z,22.40
2017-06-24T07:35:46.252Z,22.30
2017-06-24T07:38:14.530Z,21.70
2017-06-24T07:40:42.850Z,22.20
2017-06-24T07:43:10.390Z,22.20
2017-06-24T07:45:37.935Z,22.10
2017-06-24T07:48:06.227Z,22.50
2017-06-24T07:50:33.792Z,22.40
2017-06-24T07:53:01.324Z,22.20
2017-06-24T07:55:29.623Z,23.40
2017-06-24T07:57:57.181Z,23.40
2017-06-24T08:00:24.747Z,23.60
2017-06-24T08:02:52.311Z,23.90
2017-06-24T08:05:19.834Z,24.20
2017-06-24T08:07:47.365Z,24.10
2017-06-24T08:10:14.932Z,24.10
2017-06-24T08:12:42.519Z,24.40
2017-06-24T08:15:10.879Z,24.90
2017-06-24T08:17:38.430Z,24.90
2017-06-24T08:20:05.963Z,25.80
2017-06-24T08:22:33.505Z,26.30
2017-06-24T08:25:01.051Z,27.20
2017-06-24T08:27:29.361Z,28.40
2017-06-24T08:29:56.880Z,28.30
2017-06-24T08:32:24.402Z,28.20
2017-06-24T08:34:51.913Z,29.20
2017-06-24T08:37:19.471Z,30.70
2017-06-24T08:39:47.750Z,30.00
2017-06-24T08:42:16.063Z,29.40
2017-06-24T08:44:43.626Z,29.40
2017-06-24T08:47:11.198Z,29.70
2017-06-24T08:49:38.730Z,29.60
2017-06-24T08:52:06.262Z,29.70
2017-06-24T08:54:34.542Z,29.80
2017-06-24T08:57:02.078Z,29.70
2017-06-24T08:59:29.622Z,30.40
2017-06-24T09:01:57.166Z,30.30
2017-06-24T09:04:24.696Z,30.20
2017-06-24T09:06:52.212Z,30.50
2017-06-24T09:09:19.763Z,31.30
2017-06-24T09:11:47.314Z,31.10
2017-06-24T09:14:14.871Z,30.20
2017-06-24T09:16:42.444Z,30.70
2017-06-24T09:19:09.978Z,30.90
2017-06-24T09:21:37.515Z,30.80
2017-06-24T09:24:05.014Z,29.80
2017-06-24T09:26:32.582Z,29.60
2017-06-24T09:29:00.142Z,29.20
2017-06-24T09:31:27.727Z,28.40
2017-06-24T09:33:56.014Z,27.30
2017-06-24T09:36:24.385Z,27.00
2017-06-24T09:38:51.946Z,27.00
2017-06-24T09:41:19.459Z,26.40
2017-06-24T09:43:46.999Z,26.50
2017-06-24T09:46:14.506Z,26.30
2017-06-24T09:48:42.099Z,26.00
2017-06-24T09:51:09.598Z,26.00
2017-06-24T09:53:37.110Z,26.00
2017-06-24T09:56:04.673Z,25.10
2017-06-24T09:58:33.016Z,25.20
2017-06-24T10:01:00.567Z,25.20
2017-06-24T10:03:28.125Z,24.90
2017-06-24T10:05:55.642Z,24.90
2017-06-24T10:08:23.194Z,24.90
2017-06-24T10:10:50.738Z,25.20
2017-06-24T10:13:19.073Z,24.90
2017-06-24T10:15:46.636Z,25.00
2017-06-24T10:18:14.196Z,24.90
2017-06-24T10:20:41.698Z,24.80
2017-06-24T10:23:09.224Z,24.70
2017-06-24T10:25:36.746Z,24.80
2017-06-24T10:28:04.281Z,25.10
2017-06-24T10:30:31.831Z,25.00
2017-06-24T10:33:00.150Z,25.00
2017-06-24T10:35:27.697Z,25.00
2017-06-24T10:37:55.246Z,25.00
2017-06-24T10:40:22.777Z,25.10
2017-06-24T10:42:50.359Z,25.30
2017-06-24T10:45:17.897Z,25.30
2017-06-24T10:47:45.443Z,26.00
2017-06-24T10:50:12.982Z,26.50
2017-06-24T10:52:40.515Z,26.60
2017-06-24T10:55:08.010Z,27.40
2017-06-24T10:57:35.575Z,27.10
2017-06-24T11:00:03.084Z,27.00
2017-06-24T11:02:31.424Z,26.50
2017-06-24T11:04:58.966Z,26.40
2017-06-24T11:07:26.507Z,26.00
2017-06-24T11:09:54.043Z,26.20
2017-06-24T11:12:21.598Z,26.00
2017-06-24T11:14:49.110Z,26.50
2017-06-24T11:17:16.669Z,26.30
2017-06-24T11:19:44.232Z,26.50
2017-06-24T11:22:11.765Z,26.20
2017-06-24T11:24:39.311Z,26.40
2017-06-24T11:27:06.818Z,26.30
2017-06-24T11:29:34.350Z,26.40
2017-06-24T11:32:01.938Z,26.10
2017-06-24T11:34:29.470Z,26.20
2017-06-24T11:36:57.008Z,26.10
2017-06-24T11:39:24.553Z,26.00
2017-06-24T11:41:52.053Z,26.40
2017-06-24T11:44:19.636Z,26.00
2017-06-24T11:46:47.193Z,26.50
2017-06-24T11:49:14.745Z,26.50
2017-06-24T11:51:42.305Z,26.50
2017-06-24T11:54:09.885Z,25.50
2017-06-24T11:56:37.388Z,26.10
2017-06-24T11:59:04.919Z,26.30
2017-06-24T12:01:32.459Z,26.60
2017-06-24T12:04:00.030Z,26.90
2017-06-24T12:06:28.974Z,26.20
2017-06-24T12:08:56.553Z,26.70
2017-06-24T12:11:24.083Z,26.80
2017-06-24T12:13:51.621Z,26.60
2017-06-24T12:16:19.893Z,26.50
2017-06-24T12:18:47.447Z,26.50
2017-06-24T12:21:14.956Z,26.20
2017-06-24T12:23:42.518Z,26.60
2017-06-24T12:26:10.038Z,26.70
2017-06-24T12:28:38.349Z,27.10
2017-06-24T12:31:05.858Z,27.10
2017-06-24T12:33:34.208Z,27.60
2017-06-24T12:36:01.742Z,27.60
2017-06-24T12:38:29.277Z,27.30
2017-06-24T12:40:57.649Z,27.70
2017-06-24T12:43:25.980Z,27.60
2017-06-24T12:45:53.558Z,27.50
2017-06-24T12:48:21.073Z,27.40
2017-06-24T12:50:48.594Z,27.40
2017-06-24T12:53:16.945Z,27.30
2017-06-24T12:55:44.463Z,27.30
2017-06-24T12:58:12.015Z,27.20
2017-06-24T13:00:39.575Z,27.10
2017-06-24T13:03:07.861Z,28.00
2017-06-24T13:05:35.396Z,28.00
2017-06-24T13:08:02.921Z,27.70
2017-06-24T13:10:30.476Z,27.70
2017-06-24T13:12:57.992Z,28.30
2017-06-24T13:15:26.274Z,28.30
2017-06-24T13:17:53.791Z,28.30
2017-06-24T13:20:21.334Z,28.20
2017-06-24T13:22:48.846Z,26.70
2017-06-24T13:25:16.407Z,26.80
2017-06-24T13:27:43.958Z,26.50
2017-06-24T13:30:11.663Z,26.10
2017-06-24T13:32:39.206Z,25.80
2017-06-24T13:35:06.775Z,26.40
2017-06-24T13:37:34.529Z,26.40
2017-06-24T13:40:02.151Z,26.20
2017-06-24T13:42:29.663Z,25.60
2017-06-24T13:44:57.232Z,25.50
2017-06-24T13:47:24.782Z,25.70
2017-06-24T13:49:52.339Z,25.60
2017-06-24T13:52:19.940Z,25.90
2017-06-24T13:54:47.505Z,26.00
2017-06-24T13:57:15.018Z,25.90
2017-06-24T13:59:42.570Z,26.10
2017-06-24T14:02:10.104Z,26.70
2017-06-24T14:04:37.654Z,26.60
2017-06-24T14:07:05.170Z,26.10
2017-06-24T14:09:32.734Z,25.60
2017-06-24T14:12:00.248Z,24.90
2017-06-24T14:14:27.854Z,25.40
2017-06-24T14:16:55.366Z,25.30
2017-06-24T14:19:23.673Z,24.90
2017-06-24T14:21:51.211Z,24.90
2017-06-24T14:24:18.806Z,24.60
2017-06-24T14:26:46.364Z,24.60
2017-06-24T14:29:13.919Z,24.60
2017-06-24T14:31:41.454Z,24.40
2017-06-24T14:34:08.971Z,24.50
2017-06-24T14:36:36.506Z,24.40
2017-06-24T14:39:04.035Z,24.50
2017-06-24T14:41:31.597Z,24.40
2017-06-24T14:43:59.144Z,24.90
2017-06-24T14:46:27.442Z,24.50
2017-06-24T14:48:54.954Z,24.40
2017-06-24T14:51:22.489Z,24.00
2017-06-24T14:53:50.022Z,24.20
2017-06-24T14:56:17.565Z,24.50
2017-06-24T14:58:45.843Z,24.30
2017-06-24T15:01:13.406Z,24.30
2017-06-24T15:03:41.914Z,24.30
2017-06-24T15:06:10.989Z,24.30
2017-06-24T15:08:38.522Z,24.10
2017-06-24T15:11:06.062Z,24.30
2017-06-24T15:13:33.581Z,24.20
2017-06-24T15:16:01.113Z,24.60
2017-06-24T15:18:29.394Z,24.80
2017-06-24T15:20:56.957Z,24.80
2017-06-24T15:23:24.470Z,24.80
2017-06-24T15:25:52.008Z,25.00
2017-06-24T15:28:19.576Z,25.00
2017-06-24T15:30:47.130Z,25.00
2017-06-24T15:33:14.658Z,24.70
2017-06-24T15:35:42.209Z,24.80
2017-06-24T15:38:09.735Z,24.60
2017-06-24T15:40:37.294Z,24.60
2017-06-24T15:43:04.798Z,24.90
2017-06-24T15:45:32.325Z,25.20
2017-06-24T15:47:59.872Z,25.20
2017-06-24T15:50:27.413Z,25.20
2017-06-24T15:52:54.946Z,25.30
2017-06-24T15:55:22.506Z,24.90
2017-06-24T15:57:50.075Z,25.10
2017-06-24T16:00:17.986Z,25.20
2017-06-24T16:02:46.532Z,25.00
2017-06-24T16:05:14.277Z,25.20
2017-06-24T16:07:41.794Z,25.20
2017-06-24T16:10:09.372Z,25.30
2017-06-24T16:12:36.881Z,25.10
2017-06-24T16:15:04.381Z,25.10
2017-06-24T16:17:31.950Z,25.10
2017-06-24T16:19:59.455Z,25.10
2017-06-24T16:22:27.020Z,25.20
2017-06-24T16:24:54.538Z,25.30
2017-06-24T16:27:22.065Z,25.50
2017-06-24T16:29:49.608Z,25.20
2017-06-24T16:32:17.143Z,25.00
2017-06-24T16:34:44.642Z,25.10
2017-06-24T16:37:12.226Z,24.80
2017-06-24T16:39:40.513Z,25.10
2017-06-24T16:42:08.066Z,25.10
2017-06-24T16:44:36.359Z,24.90
2017-06-24T16:47:03.943Z,24.80
2017-06-24T16:49:31.486Z,25.00
2017-06-24T16:51:59.014Z,25.00
2017-06-24T16:54:27.358Z,24.80
2017-06-24T16:56:54.907Z,24.80
2017-06-24T16:59:22.411Z,25.00
2017-06-24T17:01:49.945Z,24.90
2017-06-24T17:04:17.505Z,24.90
2017-06-24T17:06:45.070Z,25.10
2017-06-24T17:09:43.922Z,24.90
2017-06-24T17:12:11.453Z,24.90
2017-06-24T17:14:38.979Z,25.00
2017-06-24T17:17:06.534Z,24.40
2017-06-24T17:19:34.039Z,24.30
2017-06-24T17:22:01.602Z,24.40
2017-06-24T17:24:29.131Z,24.40
2017-06-24T17:26:56.684Z,24.60
2017-06-24T17:29:24.201Z,24.90
2017-06-24T17:31:51.743Z,25.10
2017-06-24T17:34:19.348Z,25.00
2017-06-24T17:36:46.906Z,24.90
2017-06-24T17:39:14.421Z,25.00
2017-06-24T17:41:42.709Z,25.60
2017-06-24T17:44:10.989Z,25.50
2017-06-24T17:46:38.523Z,25.50
2017-06-24T17:49:06.049Z,25.10
2017-06-24T17:51:33.614Z,25.20
2017-06-24T17:54:01.147Z,25.20
2017-06-24T17:56:28.664Z,25.50
2017-06-24T17:58:56.198Z,25.20
2017-06-24T18:01:23.799Z,24.90
2017-06-24T18:03:51.315Z,24.90
2017-06-24T18:06:18.875Z,24.60
2017-06-24T18:08:46.438Z,24.70
2017-06-24T18:11:13.962Z,24.20
2017-06-24T18:13:41.527Z,24.30
2017-06-24T18:16:09.070Z,24.40
2017-06-24T18:18:36.602Z,24.00
2017-06-24T18:21:04.921Z,23.80
2017-06-24T18:23:32.482Z,23.80
2017-06-24T18:26:00.020Z,23.60
2017-06-24T18:28:28.336Z,23.30
2017-06-24T18:30:55.854Z,23.30
2017-06-24T18:33:24.171Z,23.20
2017-06-24T18:35:51.687Z,23.20
2017-06-24T18:38:20.013Z,23.30
2017-06-24T18:40:47.528Z,23.30
2017-06-24T18:43:15.815Z,23.40
2017-06-24T18:45:43.337Z,23.40
2017-06-24T18:48:10.877Z,23.60
2017-06-24T18:50:38.391Z,23.60
2017-06-24T18:53:05.925Z,23.40
2017-06-24T18:55:33.507Z,23.60
2017-06-24T18:58:01.047Z,23.60
2017-06-24T19:00:29.317Z,22.90
2017-06-24T19:02:56.906Z,22.90
2017-06-24T19:05:24.442Z,22.80
2017-06-24T19:07:52.004Z,22.70
2017-06-24T19:10:19.525Z,23.10
2017-06-24T19:12:47.102Z,22.90
2017-06-24T19:15:14.651Z,22.90
2017-06-24T19:17:42.191Z,22.70
2017-06-24T19:20:09.706Z,22.60
2017-06-24T19:22:38.038Z,22.60
2017-06-24T19:25:05.587Z,22.50
2017-06-24T19:27:33.111Z,22.50
2017-06-24T19:30:01.391Z,22.30
2017-06-24T19:32:29.692Z,22.60
2017-06-24T19:34:57.201Z,22.50
2017-06-24T19:37:24.733Z,22.90
2017-06-24T19:39:52.250Z,22.70
2017-06-24T19:42:20.540Z,22.60
2017-06-24T19:44:48.090Z,22.60
2017-06-24T19:47:16.436Z,22.90
2017-06-24T19:49:43.979Z,22.90
2017-06-24T19:52:11.498Z,23.00
2017-06-24T19:54:39.099Z,23.10
2017-06-24T19:57:06.606Z,22.80
2017-06-24T19:59:34.189Z,22.70
2017-06-24T20:02:01.710Z,22.80
2017-06-24T20:04:29.448Z,23.00
2017-06-24T20:06:56.966Z,22.80
2017-06-24T20:09:24.495Z,22.60
2017-06-24T20:11:52.796Z,23.00
2017-06-24T20:14:20.362Z,22.90
2017-06-24T20:16:47.931Z,23.10
2017-06-24T20:19:15.486Z,23.00
2017-06-24T20:21:43.047Z,23.00
2017-06-24T20:24:10.589Z,23.20
2017-06-24T20:26:38.114Z,23.30
2017-06-24T20:29:05.653Z,23.20
2017-06-24T20:31:33.209Z,23.20
2017-06-24T20:34:00.742Z,23.20
2017-06-24T20:36:28.274Z,23.20
2017-06-24T20:38:55.868Z,23.00
2017-06-24T20:41:23.385Z,23.10
2017-06-24T20:43:50.926Z,23.20
2017-06-24T20:46:18.437Z,23.20
2017-06-24T20:48:45.972Z,23.00
2017-06-24T20:51:15.638Z,22.80
2017-06-24T20:53:43.196Z,22.80
2017-06-24T20:56:10.739Z,23.00
2017-06-24T20:58:38.274Z,23.20
2017-06-24T21:01:05.806Z,23.30
2017-06-24T21:03:33.326Z,22.90
2017-06-24T21:06:00.850Z,22.70
2017-06-24T21:08:28.414Z,22.90
2017-06-24T21:10:56.725Z,22.90
2017-06-24T21:13:24.259Z,22.90
2017-06-24T21:15:51.794Z,22.70
2017-06-24T21:18:20.107Z,22.50
2017-06-24T21:20:47.625Z,22.50
2017-06-24T21:23:15.172Z,22.70
2017-06-24T21:25:42.683Z,22.90
2017-06-24T21:28:10.209Z,23.10
2017-06-24T21:30:37.752Z,23.10
2017-06-24T21:33:05.294Z,23.30
2017-06-24T21:35:32.825Z,23.20
2017-06-24T21:38:00.362Z,23.30
2017-06-24T21:40:27.898Z,23.20
2017-06-24T21:42:55.393Z,23.20
2017-06-24T21:45:22.935Z,23.20
2017-06-24T21:47:51.254Z,23.00
2017-06-24T21:50:18.829Z,23.00
2017-06-24T21:52:46.338Z,22.90
2017-06-24T21:55:13.957Z,22.70
2017-06-24T21:57:41.458Z,22.70
2017-06-24T22:00:08.993Z,22.90
2017-06-24T22:02:36.511Z,22.80
2017-06-24T22:05:04.061Z,22.50
2017-06-24T22:07:31.576Z,22.60
2017-06-24T22:09:59.123Z,22.80
2017-06-24T22:12:26.655Z,23.00
2017-06-24T22:14:54.220Z,22.70
2017-06-24T22:17:21.745Z,22.80
2017-06-24T22:19:49.282Z,22.90
2017-06-24T22:22:16.801Z,23.00
2017-06-24T22:24:44.338Z,23.00
2017-06-24T22:27:11.873Z,23.10
2017-06-24T22:29:39.450Z,23.00
2017-06-24T22:32:06.985Z,23.00
2017-06-24T22:34:35.295Z,22.80
2017-06-24T22:37:02.811Z,22.80
2017-06-24T22:39:30.378Z,22.80
2017-06-24T22:41:57.907Z,22.70
2017-06-24T22:44:25.462Z,22.90
2017-06-24T22:46:53.010Z,23.10
2017-06-24T22:49:20.582Z,23.10
2017-06-24T22:51:48.094Z,22.90
2017-06-24T22:54:16.409Z,22.50
2017-06-24T22:56:43.917Z,22.50
2017-06-24T22:59:12.206Z,22.70
2017-06-24T23:01:40.482Z,22.50
2017-06-24T23:04:08.823Z,22.70
2017-06-24T23:06:36.387Z,22.70
2017-06-24T23:09:03.886Z,22.70
2017-06-24T23:11:31.450Z,22.90
2017-06-24T23:13:58.967Z,23.10
2017-06-24T23:16:26.501Z,22.80
2017-06-24T23:18:54.035Z,22.90
2017-06-24T23:21:21.580Z,22.90
2017-06-24T23:23:49.859Z,22.80
2017-06-24T23:26:18.153Z,23.00
2017-06-24T23:28:45.706Z,22.90
2017-06-24T23:31:13.226Z,23.00
2017-06-24T23:33:40.731Z,22.90
2017-06-24T23:36:08.287Z,22.70
2017-06-24T23:38:35.811Z,22.90
2017-06-24T23:41:03.346Z,22.70
2017-06-24T23:43:30.882Z,22.70
2017-06-24T23:45:58.434Z,22.60
2017-06-24T23:48:25.952Z,22.60
2017-06-24T23:50:54.278Z,22.90
2017-06-24T23:53:21.794Z,22.90
2017-06-24T23:55:50.108Z,23.20
2017-06-24T23:58:17.608Z,23.20
